createdAt,value
2018-06-29T00:00:04.842Z,4.08
2018-06-29T00:00:17.284Z,4.08
2018-06-29T00:00:29.741Z,4.08
2018-06-29T00:00:42.288Z,4.08
2018-06-29T00:00:54.995Z,4.08
2018-06-29T00:01:07.504Z,4.08
2018-06-29T00:01:20.269Z,4.08
2018-06-29T00:01:32.906Z,4.08
2018-06-29T00:01:45.550Z,4.95
2018-06-29T00:01:57.950Z,4.95
2018-06-29T00:02:10.371Z,4.95
2018-06-29T00:02:22.969Z,4.95
2018-06-29T00:02:35.497Z,4.95
2018-06-29T00:02:47.910Z,4.95
2018-06-29T00:03:00.298Z,4.95
2018-06-29T00:03:12.701Z,4.95
2018-06-29T00:03:25.107Z,4.95
2018-06-29T00:03:37.500Z,4.95
2018-06-29T00:03:50.033Z,4.95
2018-06-29T00:04:02.437Z,4.95
2018-06-29T00:04:14.843Z,4.95
2018-06-29T00:04:27.400Z,4.95
2018-06-29T00:04:39.887Z,4.95
2018-06-29T00:04:52.292Z,4.95
2018-06-29T00:05:04.728Z,4.95
2018-06-29T00:05:17.131Z,4.95
2018-06-29T00:05:29.522Z,4.95
2018-06-29T00:05:41.912Z,4.95
2018-06-29T00:05:54.299Z,4.95
2018-06-29T00:06:06.701Z,4.95
2018-06-29T00:06:19.113Z,4.95
2018-06-29T00:06:31.529Z,4.95
2018-06-29T00:06:44.105Z,4.95
2018-06-29T00:06:56.604Z,4.95
2018-06-29T00:07:09.149Z,4.95
2018-06-29T00:07:21.573Z,4.95
2018-06-29T00:07:33.980Z,4.95
2018-06-29T00:07:46.385Z,4.95
2018-06-29T00:07:58.788Z,4.95
2018-06-29T00:08:11.363Z,4.95
2018-06-29T00:08:23.772Z,4.95
2018-06-29T00:08:36.160Z,4.95
2018-06-29T00:08:48.573Z,4.95
2018-06-29T00:09:00.980Z,4.95
2018-06-29T00:09:13.373Z,4.95
2018-06-29T00:09:25.788Z,4.95
2018-06-29T00:09:38.182Z,4.95
2018-06-29T00:09:50.571Z,4.95
2018-06-29T00:10:02.981Z,4.95
2018-06-29T00:10:15.370Z,4.95
2018-06-29T00:10:27.768Z,4.95
2018-06-29T00:10:40.159Z,4.95
2018-06-29T00:10:52.571Z,4.95
2018-06-29T00:11:04.976Z,4.95
2018-06-29T00:11:17.522Z,4.95
2018-06-29T00:11:29.918Z,4.95
2018-06-29T00:11:42.346Z,3.35
2018-06-29T00:11:54.794Z,3.35
2018-06-29T00:12:07.212Z,3.35
2018-06-29T00:12:19.674Z,3.35
2018-06-29T00:12:32.066Z,3.35
2018-06-29T00:12:44.460Z,3.35
2018-06-29T00:12:56.874Z,3.35
2018-06-29T00:13:09.343Z,3.35
2018-06-29T00:13:21.742Z,3.35
2018-06-29T00:13:34.348Z,3.35
2018-06-29T00:13:46.744Z,3.35
2018-06-29T00:13:59.151Z,3.35
2018-06-29T00:14:11.557Z,3.35
2018-06-29T00:14:24.000Z,3.35
2018-06-29T00:14:36.407Z,3.35
2018-06-29T00:14:48.810Z,3.35
2018-06-29T00:15:01.465Z,3.35
2018-06-29T00:15:13.940Z,3.35
2018-06-29T00:15:26.473Z,3.35
2018-06-29T00:15:38.868Z,3.35
2018-06-29T00:15:51.263Z,3.35
2018-06-29T00:16:03.722Z,3.35
2018-06-29T00:16:16.141Z,3.35
2018-06-29T00:16:28.963Z,3.35
2018-06-29T00:16:42.062Z,3.35
2018-06-29T00:16:54.456Z,3.35
2018-06-29T00:17:06.860Z,3.35
2018-06-29T00:17:19.257Z,3.35
2018-06-29T00:17:31.645Z,3.35
2018-06-29T00:17:44.148Z,3.35
2018-06-29T00:17:56.560Z,3.35
2018-06-29T00:18:09.064Z,3.35
2018-06-29T00:18:21.483Z,3.35
2018-06-29T00:18:33.894Z,3.35
2018-06-29T00:18:46.373Z,3.35
2018-06-29T00:18:58.774Z,3.35
2018-06-29T00:19:11.222Z,3.35
2018-06-29T00:19:23.620Z,3.35
2018-06-29T00:19:36.027Z,3.35
2018-06-29T00:19:48.423Z,3.35
2018-06-29T00:20:00.843Z,3.35
2018-06-29T00:20:13.331Z,3.35
2018-06-29T00:20:25.868Z,3.35
2018-06-29T00:20:38.411Z,3.35
2018-06-29T00:20:51.034Z,3.35
2018-06-29T00:21:03.429Z,3.35
2018-06-29T00:21:15.977Z,3.35
2018-06-29T00:21:28.363Z,3.35
2018-06-29T00:21:40.917Z,3.37
2018-06-29T00:21:53.323Z,3.37
2018-06-29T00:22:05.735Z,3.37
2018-06-29T00:22:18.160Z,3.37
2018-06-29T00:22:30.560Z,3.37
2018-06-29T00:22:42.970Z,3.37
2018-06-29T00:22:55.380Z,3.37
2018-06-29T00:23:07.961Z,3.37
2018-06-29T00:23:20.596Z,3.37
2018-06-29T00:23:33.356Z,3.37
2018-06-29T00:23:45.753Z,3.37
2018-06-29T00:23:58.203Z,3.37
2018-06-29T00:24:10.944Z,3.37
2018-06-29T00:24:23.387Z,3.37
2018-06-29T00:24:35.843Z,3.37
2018-06-29T00:24:48.435Z,3.37
2018-06-29T00:25:00.884Z,3.37
2018-06-29T00:25:13.273Z,3.37
2018-06-29T00:25:25.696Z,3.37
2018-06-29T00:25:38.103Z,3.37
2018-06-29T00:25:50.506Z,3.37
2018-06-29T00:26:02.926Z,3.37
2018-06-29T00:26:15.325Z,3.37
2018-06-29T00:26:27.710Z,3.37
2018-06-29T00:26:40.272Z,3.37
2018-06-29T00:26:52.841Z,3.37
2018-06-29T00:27:05.234Z,3.37
2018-06-29T00:27:17.694Z,3.37
2018-06-29T00:27:30.108Z,3.37
2018-06-29T00:27:42.499Z,3.37
2018-06-29T00:27:55.087Z,3.37
2018-06-29T00:28:07.513Z,3.37
2018-06-29T00:28:19.922Z,3.37
2018-06-29T00:28:32.337Z,3.37
2018-06-29T00:28:44.743Z,3.37
2018-06-29T00:28:57.495Z,3.37
2018-06-29T00:29:09.879Z,3.37
2018-06-29T00:29:22.287Z,3.37
2018-06-29T00:29:34.738Z,3.37
2018-06-29T00:29:47.144Z,3.37
2018-06-29T00:29:59.529Z,3.37
2018-06-29T00:30:12.066Z,3.37
2018-06-29T00:30:24.467Z,3.37
2018-06-29T00:30:36.863Z,3.37
2018-06-29T00:30:49.291Z,3.37
2018-06-29T00:31:01.701Z,3.37
2018-06-29T00:31:14.092Z,3.37
2018-06-29T00:31:26.481Z,3.37
2018-06-29T00:31:38.867Z,3.37
2018-06-29T00:31:51.308Z,4.85
2018-06-29T00:32:03.721Z,4.85
2018-06-29T00:32:16.122Z,4.85
2018-06-29T00:32:28.518Z,4.85
2018-06-29T00:32:40.922Z,4.85
2018-06-29T00:32:53.403Z,4.85
2018-06-29T00:33:05.813Z,4.85
2018-06-29T00:33:18.223Z,4.85
2018-06-29T00:33:30.612Z,4.85
2018-06-29T00:33:42.995Z,4.85
2018-06-29T00:33:55.438Z,4.85
2018-06-29T00:34:07.844Z,4.85
2018-06-29T00:34:20.242Z,4.85
2018-06-29T00:34:32.636Z,4.85
2018-06-29T00:34:45.054Z,4.85
2018-06-29T00:34:57.470Z,4.85
2018-06-29T00:35:09.878Z,4.85
2018-06-29T00:35:22.402Z,4.85
2018-06-29T00:35:34.811Z,4.85
2018-06-29T00:35:47.217Z,4.85
2018-06-29T00:35:59.634Z,4.85
2018-06-29T00:36:12.036Z,4.85
2018-06-29T00:36:24.607Z,4.85
2018-06-29T00:36:37.026Z,4.85
2018-06-29T00:36:49.470Z,4.85
2018-06-29T00:37:02.295Z,4.85
2018-06-29T00:37:14.735Z,4.85
2018-06-29T00:37:27.141Z,4.85
2018-06-29T00:37:39.548Z,4.85
2018-06-29T00:37:51.950Z,4.85
2018-06-29T00:38:04.483Z,4.85
2018-06-29T00:38:17.215Z,4.85
2018-06-29T00:38:29.776Z,4.85
2018-06-29T00:38:42.317Z,4.85
2018-06-29T00:38:54.725Z,4.85
2018-06-29T00:39:07.133Z,4.85
2018-06-29T00:39:19.560Z,4.85
2018-06-29T00:39:32.096Z,4.85
2018-06-29T00:39:44.605Z,4.85
2018-06-29T00:39:56.996Z,4.85
2018-06-29T00:40:09.397Z,4.85
2018-06-29T00:40:21.804Z,4.85
2018-06-29T00:40:34.197Z,4.85
2018-06-29T00:40:46.676Z,4.85
2018-06-29T00:40:59.078Z,4.85
2018-06-29T00:41:11.503Z,4.85
2018-06-29T00:41:24.071Z,4.85
2018-06-29T00:41:36.466Z,4.85
2018-06-29T00:41:48.858Z,3.82
2018-06-29T00:42:01.265Z,3.82
2018-06-29T00:42:13.671Z,3.82
2018-06-29T00:42:26.067Z,3.82
2018-06-29T00:42:38.471Z,3.82
2018-06-29T00:42:50.875Z,3.82
2018-06-29T00:43:03.291Z,3.82
2018-06-29T00:43:15.687Z,3.82
2018-06-29T00:43:28.087Z,3.82
2018-06-29T00:43:40.503Z,3.82
2018-06-29T00:43:52.895Z,3.82
2018-06-29T00:44:05.447Z,3.82
2018-06-29T00:44:17.843Z,3.82
2018-06-29T00:44:30.287Z,3.82
2018-06-29T00:44:42.689Z,3.82
2018-06-29T00:44:55.095Z,3.82
2018-06-29T00:45:07.706Z,3.82
2018-06-29T00:45:20.112Z,3.82
2018-06-29T00:45:32.528Z,3.82
2018-06-29T00:45:44.929Z,3.82
2018-06-29T00:45:58.006Z,3.82
2018-06-29T00:46:10.886Z,3.82
2018-06-29T00:46:23.307Z,3.82
2018-06-29T00:46:35.714Z,3.82
2018-06-29T00:46:48.135Z,3.82
2018-06-29T00:47:00.539Z,3.82
2018-06-29T00:47:12.944Z,3.82
2018-06-29T00:47:25.361Z,3.82
2018-06-29T00:47:37.766Z,3.82
2018-06-29T00:47:50.176Z,3.82
2018-06-29T00:48:02.568Z,3.82
2018-06-29T00:48:14.966Z,3.82
2018-06-29T00:48:27.380Z,3.82
2018-06-29T00:48:39.831Z,3.82
2018-06-29T00:48:52.258Z,3.82
2018-06-29T00:49:04.658Z,3.82
2018-06-29T00:49:17.065Z,3.82
2018-06-29T00:49:29.475Z,3.82
2018-06-29T00:49:41.900Z,3.82
2018-06-29T00:49:54.305Z,3.82
2018-06-29T00:50:06.735Z,3.82
2018-06-29T00:50:19.147Z,3.82
2018-06-29T00:50:31.566Z,3.82
2018-06-29T00:50:43.978Z,3.82
2018-06-29T00:50:56.379Z,3.82
2018-06-29T00:51:08.789Z,3.82
2018-06-29T00:51:21.192Z,3.82
2018-06-29T00:51:33.739Z,3.82
2018-06-29T00:51:46.146Z,7.9
2018-06-29T00:51:58.541Z,7.9
2018-06-29T00:52:11.081Z,7.9
2018-06-29T00:52:23.631Z,7.9
2018-06-29T00:52:36.263Z,7.9
2018-06-29T00:52:48.859Z,7.9
2018-06-29T00:53:01.331Z,7.9
2018-06-29T00:53:13.737Z,7.9
2018-06-29T00:53:26.157Z,7.9
2018-06-29T00:53:38.549Z,7.9
2018-06-29T00:53:50.953Z,7.9
2018-06-29T00:54:03.351Z,7.9
2018-06-29T00:54:15.756Z,7.9
2018-06-29T00:54:28.347Z,7.9
2018-06-29T00:54:41.595Z,7.9
2018-06-29T00:54:54.235Z,7.9
2018-06-29T00:55:06.657Z,7.9
2018-06-29T00:55:19.817Z,7.9
2018-06-29T00:55:32.530Z,7.9
2018-06-29T00:55:44.940Z,7.9
2018-06-29T00:55:57.349Z,7.9
2018-06-29T00:56:09.764Z,7.9
2018-06-29T00:56:22.161Z,7.9
2018-06-29T00:56:34.592Z,7.9
2018-06-29T00:56:47.003Z,7.9
2018-06-29T00:56:59.402Z,7.9
2018-06-29T00:57:11.806Z,7.9
2018-06-29T00:57:24.216Z,7.9
2018-06-29T00:57:36.616Z,7.9
2018-06-29T00:57:49.048Z,7.9
2018-06-29T00:58:01.453Z,7.9
2018-06-29T00:58:13.930Z,7.9
2018-06-29T00:58:26.331Z,7.9
2018-06-29T00:58:38.725Z,7.9
2018-06-29T00:58:51.143Z,7.9
2018-06-29T00:59:03.547Z,7.9
2018-06-29T00:59:15.944Z,7.9
2018-06-29T00:59:28.525Z,7.9
2018-06-29T00:59:40.948Z,7.9
2018-06-29T00:59:53.338Z,7.9
2018-06-29T01:00:05.825Z,7.9
2018-06-29T01:00:18.233Z,7.9
2018-06-29T01:00:30.695Z,7.9
2018-06-29T01:00:43.207Z,7.9
2018-06-29T01:00:55.625Z,7.9
2018-06-29T01:01:08.132Z,7.9
2018-06-29T01:01:20.775Z,7.9
2018-06-29T01:01:33.164Z,7.9
2018-06-29T01:01:45.546Z,4.13
2018-06-29T01:01:57.943Z,4.13
2018-06-29T01:02:10.349Z,4.13
2018-06-29T01:02:29.762Z,4.13
2018-06-29T01:02:42.162Z,4.13
2018-06-29T01:02:54.559Z,4.13
2018-06-29T01:03:06.981Z,4.13
2018-06-29T01:03:19.382Z,4.13
2018-06-29T01:03:31.784Z,4.13
2018-06-29T01:03:44.213Z,4.13
2018-06-29T01:03:56.660Z,4.13
2018-06-29T01:04:09.060Z,4.13
2018-06-29T01:04:21.469Z,4.13
2018-06-29T01:04:33.863Z,4.13
2018-06-29T01:04:46.298Z,4.13
2018-06-29T01:04:58.691Z,4.13
2018-06-29T01:05:11.111Z,4.13
2018-06-29T01:05:23.512Z,4.13
2018-06-29T01:05:35.926Z,4.13
2018-06-29T01:05:48.363Z,4.13
2018-06-29T01:06:00.801Z,4.13
2018-06-29T01:06:13.209Z,4.13
2018-06-29T01:06:25.644Z,4.13
2018-06-29T01:06:38.034Z,4.13
2018-06-29T01:06:50.436Z,4.13
2018-06-29T01:07:02.837Z,4.13
2018-06-29T01:07:15.364Z,4.13
2018-06-29T01:07:27.770Z,4.13
2018-06-29T01:07:40.168Z,4.13
2018-06-29T01:07:52.564Z,4.13
2018-06-29T01:08:04.966Z,4.13
2018-06-29T01:08:18.152Z,4.13
2018-06-29T01:08:31.004Z,4.13
2018-06-29T01:08:43.423Z,4.13
2018-06-29T01:08:55.848Z,4.13
2018-06-29T01:09:08.259Z,4.13
2018-06-29T01:09:20.691Z,4.13
2018-06-29T01:09:33.117Z,4.13
2018-06-29T01:09:45.511Z,4.13
2018-06-29T01:09:57.969Z,4.13
2018-06-29T01:10:10.369Z,4.13
2018-06-29T01:10:22.786Z,4.13
2018-06-29T01:10:35.195Z,4.13
2018-06-29T01:10:47.596Z,4.13
2018-06-29T01:10:59.992Z,4.13
2018-06-29T01:11:12.414Z,4.13
2018-06-29T01:11:24.808Z,4.13
2018-06-29T01:11:37.231Z,4.13
2018-06-29T01:11:49.635Z,4.97
2018-06-29T01:12:02.191Z,4.97
2018-06-29T01:12:14.595Z,4.97
2018-06-29T01:12:26.998Z,4.97
2018-06-29T01:12:39.396Z,4.97
2018-06-29T01:12:51.808Z,4.97
2018-06-29T01:13:04.254Z,4.97
2018-06-29T01:13:16.661Z,4.97
2018-06-29T01:13:29.081Z,4.97
2018-06-29T01:13:41.497Z,4.97
2018-06-29T01:13:53.913Z,4.97
2018-06-29T01:14:06.313Z,4.97
2018-06-29T01:14:18.731Z,4.97
2018-06-29T01:14:31.143Z,4.97
2018-06-29T01:14:43.549Z,4.97
2018-06-29T01:14:55.958Z,4.97
2018-06-29T01:15:08.396Z,4.97
2018-06-29T01:15:20.813Z,4.97
2018-06-29T01:15:33.219Z,4.97
2018-06-29T01:15:45.619Z,4.97
2018-06-29T01:15:58.038Z,4.97
2018-06-29T01:16:10.429Z,4.97
2018-06-29T01:16:22.837Z,4.97
2018-06-29T01:16:35.247Z,4.97
2018-06-29T01:16:47.724Z,4.97
2018-06-29T01:17:00.245Z,4.97
2018-06-29T01:17:12.639Z,4.97
2018-06-29T01:17:25.032Z,4.97
2018-06-29T01:17:37.449Z,4.97
2018-06-29T01:17:49.837Z,4.97
2018-06-29T01:18:02.235Z,4.97
2018-06-29T01:18:14.648Z,4.97
2018-06-29T01:18:27.060Z,4.97
2018-06-29T01:18:39.462Z,4.97
2018-06-29T01:18:51.850Z,4.97
2018-06-29T01:19:04.249Z,4.97
2018-06-29T01:19:16.677Z,4.97
2018-06-29T01:19:29.067Z,4.97
2018-06-29T01:19:41.532Z,4.97
2018-06-29T01:19:53.930Z,4.97
2018-06-29T01:20:06.344Z,4.97
2018-06-29T01:20:18.754Z,4.97
2018-06-29T01:20:31.147Z,4.97
2018-06-29T01:20:43.558Z,4.97
2018-06-29T01:20:55.940Z,4.97
2018-06-29T01:21:08.379Z,4.97
2018-06-29T01:21:20.771Z,4.97
2018-06-29T01:21:33.353Z,4.97
2018-06-29T01:21:45.761Z,4.65
2018-06-29T01:21:58.173Z,4.65
2018-06-29T01:22:10.608Z,4.65
2018-06-29T01:22:23.025Z,4.65
2018-06-29T01:22:35.455Z,4.65
2018-06-29T01:22:47.885Z,4.65
2018-06-29T01:23:00.288Z,4.65
2018-06-29T01:23:12.850Z,4.65
2018-06-29T01:23:25.300Z,4.65
2018-06-29T01:23:37.697Z,4.65
2018-06-29T01:23:50.116Z,4.65
2018-06-29T01:24:02.634Z,4.65
2018-06-29T01:24:15.041Z,4.65
2018-06-29T01:24:27.449Z,4.65
2018-06-29T01:24:39.851Z,4.65
2018-06-29T01:24:52.264Z,4.65
2018-06-29T01:25:04.735Z,4.65
2018-06-29T01:25:17.180Z,4.65
2018-06-29T01:25:29.589Z,4.65
2018-06-29T01:25:41.978Z,4.65
2018-06-29T01:25:54.387Z,4.65
2018-06-29T01:26:06.832Z,4.65
2018-06-29T01:26:19.255Z,4.65
2018-06-29T01:26:31.711Z,4.65
2018-06-29T01:26:44.167Z,4.65
2018-06-29T01:26:56.574Z,4.65
2018-06-29T01:27:09.003Z,4.65
2018-06-29T01:27:21.418Z,4.65
2018-06-29T01:27:33.818Z,4.65
2018-06-29T01:27:46.226Z,4.65
2018-06-29T01:27:58.630Z,4.65
2018-06-29T01:28:11.077Z,4.65
2018-06-29T01:28:23.673Z,4.65
2018-06-29T01:28:36.309Z,4.65
2018-06-29T01:28:49.676Z,4.65
2018-06-29T01:29:02.094Z,4.65
2018-06-29T01:29:14.492Z,4.65
2018-06-29T01:29:26.888Z,4.65
2018-06-29T01:29:39.298Z,4.65
2018-06-29T01:29:51.694Z,4.65
2018-06-29T01:30:04.083Z,4.65
2018-06-29T01:30:16.500Z,4.65
2018-06-29T01:30:28.891Z,4.65
2018-06-29T01:30:41.308Z,4.65
2018-06-29T01:30:53.709Z,4.65
2018-06-29T01:31:06.114Z,4.65
2018-06-29T01:31:18.523Z,4.65
2018-06-29T01:31:30.923Z,4.65
2018-06-29T01:31:43.365Z,3.29
2018-06-29T01:31:55.765Z,3.29
2018-06-29T01:32:08.169Z,3.29
2018-06-29T01:32:20.567Z,3.29
2018-06-29T01:32:32.979Z,3.29
2018-06-29T01:32:45.417Z,3.29
2018-06-29T01:32:57.816Z,3.29
2018-06-29T01:33:10.294Z,3.29
2018-06-29T01:33:22.700Z,3.29
2018-06-29T01:33:35.089Z,3.29
2018-06-29T01:33:47.485Z,3.29
2018-06-29T01:33:59.912Z,3.29
2018-06-29T01:34:12.311Z,3.29
2018-06-29T01:34:24.783Z,3.29
2018-06-29T01:34:37.184Z,3.29
2018-06-29T01:34:49.576Z,3.29
2018-06-29T01:35:01.995Z,3.29
2018-06-29T01:35:14.425Z,3.29
2018-06-29T01:35:26.822Z,3.29
2018-06-29T01:35:39.222Z,3.29
2018-06-29T01:35:51.612Z,3.29
2018-06-29T01:36:04.009Z,3.29
2018-06-29T01:36:16.396Z,3.29
2018-06-29T01:36:28.799Z,3.29
2018-06-29T01:36:41.194Z,3.29
2018-06-29T01:36:53.639Z,3.29
2018-06-29T01:37:06.808Z,3.29
2018-06-29T01:37:19.218Z,3.29
2018-06-29T01:37:31.610Z,3.29
2018-06-29T01:37:44.008Z,3.29
2018-06-29T01:37:56.405Z,3.29
2018-06-29T01:38:08.792Z,3.29
2018-06-29T01:38:21.178Z,3.29
2018-06-29T01:38:33.581Z,3.29
2018-06-29T01:38:45.981Z,3.29
2018-06-29T01:38:58.378Z,3.29
2018-06-29T01:39:10.761Z,3.29
2018-06-29T01:39:23.157Z,3.29
2018-06-29T01:39:35.576Z,3.29
2018-06-29T01:39:48.010Z,3.29
2018-06-29T01:40:00.474Z,3.29
2018-06-29T01:40:12.900Z,3.29
2018-06-29T01:40:25.309Z,3.29
2018-06-29T01:40:37.709Z,3.29
2018-06-29T01:40:50.123Z,3.29
2018-06-29T01:41:02.533Z,3.29
2018-06-29T01:41:14.938Z,3.29
2018-06-29T01:41:27.839Z,3.29
2018-06-29T01:41:40.782Z,3.29
2018-06-29T01:41:53.199Z,3.48
2018-06-29T01:42:05.633Z,3.48
2018-06-29T01:42:18.030Z,3.48
2018-06-29T01:42:30.436Z,3.48
2018-06-29T01:42:42.848Z,3.48
2018-06-29T01:42:55.248Z,3.48
2018-06-29T01:43:07.665Z,3.48
2018-06-29T01:43:20.097Z,3.48
2018-06-29T01:43:32.502Z,3.48
2018-06-29T01:43:44.924Z,3.48
2018-06-29T01:43:57.339Z,3.48
2018-06-29T01:44:09.750Z,3.48
2018-06-29T01:44:22.160Z,3.48
2018-06-29T01:44:34.572Z,3.48
2018-06-29T01:44:46.971Z,3.48
2018-06-29T01:44:59.377Z,3.48
2018-06-29T01:45:11.789Z,3.48
2018-06-29T01:45:24.196Z,3.48
2018-06-29T01:45:36.601Z,3.48
2018-06-29T01:45:49.169Z,3.48
2018-06-29T01:46:01.562Z,3.48
2018-06-29T01:46:13.991Z,3.48
2018-06-29T01:46:26.409Z,3.48
2018-06-29T01:46:38.810Z,3.48
2018-06-29T01:46:51.213Z,3.48
2018-06-29T01:47:03.622Z,3.48
2018-06-29T01:47:16.026Z,3.48
2018-06-29T01:47:28.419Z,3.48
2018-06-29T01:47:40.821Z,3.48
2018-06-29T01:47:53.224Z,3.48
2018-06-29T01:48:05.626Z,3.48
2018-06-29T01:48:18.026Z,3.48
2018-06-29T01:48:30.434Z,3.48
2018-06-29T01:48:42.989Z,3.48
2018-06-29T01:48:55.402Z,3.48
2018-06-29T01:49:07.810Z,3.48
2018-06-29T01:49:20.213Z,3.48
2018-06-29T01:49:32.607Z,3.48
2018-06-29T01:49:44.999Z,3.48
2018-06-29T01:49:57.467Z,3.48
2018-06-29T01:50:09.923Z,3.48
2018-06-29T01:50:22.338Z,3.48
2018-06-29T01:50:34.753Z,3.48
2018-06-29T01:50:47.188Z,3.48
2018-06-29T01:50:59.593Z,3.48
2018-06-29T01:51:12.007Z,3.48
2018-06-29T01:51:24.422Z,3.48
2018-06-29T01:51:36.812Z,3.48
2018-06-29T01:51:49.214Z,3.57
2018-06-29T01:52:01.615Z,3.57
2018-06-29T01:52:14.295Z,3.57
2018-06-29T01:52:27.191Z,3.57
2018-06-29T01:52:40.224Z,3.57
2018-06-29T01:52:53.249Z,3.57
2018-06-29T01:53:05.659Z,3.57
2018-06-29T01:53:18.071Z,3.57
2018-06-29T01:53:30.473Z,3.57
2018-06-29T01:53:42.894Z,3.57
2018-06-29T01:53:55.337Z,3.57
2018-06-29T01:54:07.934Z,3.57
2018-06-29T01:54:20.338Z,3.57
2018-06-29T01:54:32.806Z,3.57
2018-06-29T01:54:45.218Z,3.57
2018-06-29T01:54:57.797Z,3.57
2018-06-29T01:55:10.220Z,3.57
2018-06-29T01:55:22.634Z,3.57
2018-06-29T01:55:35.116Z,3.57
2018-06-29T01:55:47.520Z,3.57
2018-06-29T01:55:59.913Z,3.57
2018-06-29T01:56:12.374Z,3.57
2018-06-29T01:56:24.805Z,3.57
2018-06-29T01:56:37.205Z,3.57
2018-06-29T01:56:49.618Z,3.57
2018-06-29T01:57:02.041Z,3.57
2018-06-29T01:57:14.441Z,3.57
2018-06-29T01:57:26.863Z,3.57
2018-06-29T01:57:39.276Z,3.57
2018-06-29T01:57:51.658Z,3.57
2018-06-29T01:58:04.083Z,3.57
2018-06-29T01:58:16.542Z,3.57
2018-06-29T01:58:28.951Z,3.57
2018-06-29T01:58:41.364Z,3.57
2018-06-29T01:58:53.759Z,3.57
2018-06-29T01:59:06.189Z,3.57
2018-06-29T01:59:18.592Z,3.57
2018-06-29T01:59:31.039Z,3.57
2018-06-29T01:59:43.440Z,3.57
2018-06-29T01:59:55.858Z,3.57
2018-06-29T02:00:08.309Z,3.57
2018-06-29T02:00:20.739Z,3.57
2018-06-29T02:00:33.192Z,3.57
2018-06-29T02:00:45.640Z,3.57
2018-06-29T02:00:58.149Z,3.57
2018-06-29T02:01:10.833Z,3.57
2018-06-29T02:01:23.472Z,3.57
2018-06-29T02:01:35.881Z,3.57
2018-06-29T02:01:48.274Z,4.68
2018-06-29T02:02:00.679Z,4.68
2018-06-29T02:02:13.078Z,4.68
2018-06-29T02:02:25.528Z,4.68
2018-06-29T02:02:37.922Z,4.68
2018-06-29T02:02:50.330Z,4.68
2018-06-29T02:03:02.727Z,4.68
2018-06-29T02:03:15.191Z,4.68
2018-06-29T02:03:27.591Z,4.68
2018-06-29T02:03:39.992Z,4.68
2018-06-29T02:03:52.378Z,4.68
2018-06-29T02:04:04.798Z,4.68
2018-06-29T02:04:17.263Z,4.68
2018-06-29T02:04:29.691Z,4.68
2018-06-29T02:04:42.096Z,4.68
2018-06-29T02:04:54.506Z,4.68
2018-06-29T02:05:06.909Z,4.68
2018-06-29T02:05:19.317Z,4.68
2018-06-29T02:05:31.718Z,4.68
2018-06-29T02:05:44.106Z,4.68
2018-06-29T02:05:56.498Z,4.68
2018-06-29T02:06:08.889Z,4.68
2018-06-29T02:06:21.326Z,4.68
2018-06-29T02:06:33.749Z,4.68
2018-06-29T02:06:46.150Z,4.68
2018-06-29T02:06:58.569Z,4.68
2018-06-29T02:07:11.130Z,4.68
2018-06-29T02:07:23.531Z,4.68
2018-06-29T02:07:35.927Z,4.68
2018-06-29T02:07:48.337Z,4.68
2018-06-29T02:08:01.091Z,4.68
2018-06-29T02:08:14.390Z,4.68
2018-06-29T02:08:26.836Z,4.68
2018-06-29T02:08:39.249Z,4.68
2018-06-29T02:08:51.651Z,4.68
2018-06-29T02:09:04.118Z,4.68
2018-06-29T02:09:16.517Z,4.68
2018-06-29T02:09:28.916Z,4.68
2018-06-29T02:09:41.326Z,4.68
2018-06-29T02:09:53.780Z,4.68
2018-06-29T02:10:06.213Z,4.68
2018-06-29T02:10:18.614Z,4.68
2018-06-29T02:10:31.012Z,4.68
2018-06-29T02:10:43.425Z,4.68
2018-06-29T02:10:55.822Z,4.68
2018-06-29T02:11:08.225Z,4.68
2018-06-29T02:11:20.630Z,4.68
2018-06-29T02:11:33.061Z,4.68
2018-06-29T02:11:45.479Z,3.88
2018-06-29T02:11:57.889Z,3.88
2018-06-29T02:12:10.282Z,3.88
2018-06-29T02:12:22.697Z,3.88
2018-06-29T02:12:35.103Z,3.88
2018-06-29T02:12:47.495Z,3.88
2018-06-29T02:12:59.896Z,3.88
2018-06-29T02:13:12.302Z,3.88
2018-06-29T02:13:24.707Z,3.88
2018-06-29T02:13:37.107Z,3.88
2018-06-29T02:13:49.502Z,3.88
2018-06-29T02:14:01.908Z,3.88
2018-06-29T02:14:14.333Z,3.88
2018-06-29T02:14:26.734Z,3.88
2018-06-29T02:14:39.167Z,3.88
2018-06-29T02:14:51.754Z,3.88
2018-06-29T02:15:04.152Z,3.88
2018-06-29T02:15:16.567Z,3.88
2018-06-29T02:15:29.034Z,3.88
2018-06-29T02:15:41.449Z,3.88
2018-06-29T02:15:53.864Z,3.88
2018-06-29T02:16:06.301Z,3.88
2018-06-29T02:16:18.726Z,3.88
2018-06-29T02:16:31.138Z,3.88
2018-06-29T02:16:43.536Z,3.88
2018-06-29T02:16:55.941Z,3.88
2018-06-29T02:17:08.339Z,3.88
2018-06-29T02:17:20.808Z,3.88
2018-06-29T02:17:33.203Z,3.88
2018-06-29T02:17:45.630Z,3.88
2018-06-29T02:17:58.038Z,3.88
2018-06-29T02:18:10.440Z,3.88
2018-06-29T02:18:22.848Z,3.88
2018-06-29T02:18:35.253Z,3.88
2018-06-29T02:18:47.655Z,3.88
2018-06-29T02:19:00.051Z,3.88
2018-06-29T02:19:12.444Z,3.88
2018-06-29T02:19:24.859Z,3.88
2018-06-29T02:19:37.273Z,3.88
2018-06-29T02:19:49.729Z,3.88
2018-06-29T02:20:02.151Z,3.88
2018-06-29T02:20:14.559Z,3.88
2018-06-29T02:20:26.959Z,3.88
2018-06-29T02:20:39.354Z,3.88
2018-06-29T02:20:51.761Z,3.88
2018-06-29T02:21:04.171Z,3.88
2018-06-29T02:21:16.569Z,3.88
2018-06-29T02:21:28.969Z,3.88
2018-06-29T02:21:41.369Z,3.88
2018-06-29T02:21:53.774Z,4.1
2018-06-29T02:22:06.164Z,4.1
2018-06-29T02:22:18.603Z,4.1
2018-06-29T02:22:31.003Z,4.1
2018-06-29T02:22:43.409Z,4.1
2018-06-29T02:22:55.829Z,4.1
2018-06-29T02:23:08.402Z,4.1
2018-06-29T02:23:20.957Z,4.1
2018-06-29T02:23:33.554Z,4.1
2018-06-29T02:23:46.005Z,4.1
2018-06-29T02:23:58.397Z,4.1
2018-06-29T02:24:10.943Z,4.1
2018-06-29T02:24:23.345Z,4.1
2018-06-29T02:24:35.746Z,4.1
2018-06-29T02:24:48.141Z,4.1
2018-06-29T02:25:00.569Z,4.1
2018-06-29T02:25:12.981Z,4.1
2018-06-29T02:25:25.368Z,4.1
2018-06-29T02:25:37.762Z,4.1
2018-06-29T02:25:50.167Z,4.1
2018-06-29T02:26:02.560Z,4.1
2018-06-29T02:26:14.974Z,4.1
2018-06-29T02:26:27.372Z,4.1
2018-06-29T02:26:39.784Z,4.1
2018-06-29T02:26:52.189Z,4.1
2018-06-29T02:27:04.616Z,4.1
2018-06-29T02:27:17.031Z,4.1
2018-06-29T02:27:29.501Z,4.1
2018-06-29T02:27:42.402Z,4.1
2018-06-29T02:27:55.206Z,4.1
2018-06-29T02:28:07.632Z,4.1
2018-06-29T02:28:20.043Z,4.1
2018-06-29T02:28:32.451Z,4.1
2018-06-29T02:28:44.883Z,4.1
2018-06-29T02:28:57.425Z,4.1
2018-06-29T02:29:10.058Z,4.1
2018-06-29T02:29:22.545Z,4.1
2018-06-29T02:29:34.999Z,4.1
2018-06-29T02:29:47.402Z,4.1
2018-06-29T02:29:59.895Z,4.1
2018-06-29T02:30:12.366Z,4.1
2018-06-29T02:30:25.100Z,4.1
2018-06-29T02:30:38.453Z,4.1
2018-06-29T02:30:52.500Z,4.1
2018-06-29T02:31:05.145Z,4.1
2018-06-29T02:31:17.609Z,4.1
2018-06-29T02:31:30.118Z,4.1
2018-06-29T02:31:42.565Z,4.1
2018-06-29T02:31:55.032Z,4.51
2018-06-29T02:32:07.471Z,4.51
2018-06-29T02:32:19.953Z,4.51
2018-06-29T02:32:32.367Z,4.51
2018-06-29T02:32:44.815Z,4.51
2018-06-29T02:32:57.246Z,4.51
2018-06-29T02:33:09.693Z,4.51
2018-06-29T02:33:22.137Z,4.51
2018-06-29T02:33:34.564Z,4.51
2018-06-29T02:33:46.970Z,4.51
2018-06-29T02:33:59.492Z,4.51
2018-06-29T02:34:11.931Z,4.51
2018-06-29T02:34:24.333Z,4.51
2018-06-29T02:34:36.758Z,4.51
2018-06-29T02:34:49.255Z,4.51
2018-06-29T02:35:01.673Z,4.51
2018-06-29T02:35:14.229Z,4.51
2018-06-29T02:35:26.637Z,4.51
2018-06-29T02:35:39.050Z,4.51
2018-06-29T02:35:51.511Z,4.51
2018-06-29T02:36:03.995Z,4.51
2018-06-29T02:36:16.416Z,4.51
2018-06-29T02:36:28.839Z,4.51
2018-06-29T02:36:41.257Z,4.51
2018-06-29T02:36:53.674Z,4.51
2018-06-29T02:37:06.352Z,4.51
2018-06-29T02:37:18.769Z,4.51
2018-06-29T02:37:31.199Z,4.51
2018-06-29T02:37:43.625Z,4.51
2018-06-29T02:37:56.040Z,4.51
2018-06-29T02:38:08.497Z,4.51
2018-06-29T02:38:20.937Z,4.51
2018-06-29T02:38:33.374Z,4.51
2018-06-29T02:38:45.793Z,4.51
2018-06-29T02:38:58.210Z,4.51
2018-06-29T02:39:10.673Z,4.51
2018-06-29T02:39:23.117Z,4.51
2018-06-29T02:39:35.551Z,4.51
2018-06-29T02:39:47.953Z,4.51
2018-06-29T02:40:00.347Z,4.51
2018-06-29T02:40:12.754Z,4.51
2018-06-29T02:40:25.175Z,4.51
2018-06-29T02:40:37.591Z,4.51
2018-06-29T02:40:49.999Z,4.51
2018-06-29T02:41:02.423Z,4.51
2018-06-29T02:41:14.856Z,4.51
2018-06-29T02:41:27.275Z,4.51
2018-06-29T02:41:39.700Z,4.51
2018-06-29T02:41:52.112Z,7.26
2018-06-29T02:42:04.553Z,7.26
2018-06-29T02:42:16.965Z,7.26
2018-06-29T02:42:29.420Z,7.26
2018-06-29T02:42:41.865Z,7.26
2018-06-29T02:42:54.274Z,7.26
2018-06-29T02:43:06.679Z,7.26
2018-06-29T02:43:19.093Z,7.26
2018-06-29T02:43:31.529Z,7.26
2018-06-29T02:43:43.963Z,7.26
2018-06-29T02:43:56.380Z,7.26
2018-06-29T02:44:08.941Z,7.26
2018-06-29T02:44:21.354Z,7.26
2018-06-29T02:44:33.828Z,7.26
2018-06-29T02:44:46.260Z,7.26
2018-06-29T02:44:58.674Z,7.26
2018-06-29T02:45:11.090Z,7.26
2018-06-29T02:45:23.517Z,7.26
2018-06-29T02:45:35.965Z,7.26
2018-06-29T02:45:48.395Z,7.26
2018-06-29T02:46:00.937Z,7.26
2018-06-29T02:46:13.362Z,7.26
2018-06-29T02:46:25.768Z,7.26